Wednesday, November 22, 2017, 3:57 AM EST
Back to Local

KNTU, Oceana, Naval Air Station

Location: Virginia Beach, VA, United States Lat: 36.817
Local Time: 3:57 AM EST ( 8:57 GMT) Lon: -76.033
Time Zone: US/Eastern Elev: 22 ft

Show me the last for .
Show Coded

Time T Td Feel RH Dir Speed Gust Alt SLP Vis Weather Sky Remarks
2017-11-22 02:56 61 57 - 86 150° 7 - 29.93 29.94 10 BKN090 OVC120 1-hr Precip Total: Trace
2017-11-22 01:56 61 56 - 83 140° 6 - 29.97 29.97 10 FEW070 BKN100 OVC220 None
2017-11-22 00:56 61 56 - 83 130° 8 - 29.99 30.00 10 FEW080 BKN120 OVC250 6-hr Min Temp (1am): 54.0°F
6-hr Max Temp (1am): 61.0°F
2017-11-21 23:56 60 55 - 83 140° 6 - 30.03 30.04 10 SCT080 BKN160 OVC250 24-hr Min Temp (12am): 36.0°F
24-hr Max Temp (12am): 64.0°F
2017-11-21 22:56 59 53 - 80 140° 6 - 30.06 30.06 10 BKN090 OVC210 None
2017-11-21 20:56 56 50 - 80 140° 5 - 30.10 30.11 10 BKN085 OVC250 None
2017-11-21 19:56 56 50 - 80 160° 5 - 30.12 30.13 10 BKN080 OVC250 None
2017-11-21 18:56 56 50 - 80 140° 7 - 30.12 30.13 10 FEW030 BKN070 OVC250 6-hr Min Temp (7pm): 55.0°F
6-hr Max Temp (7pm): 64.0°F
2017-11-21 17:56 55 47 - 74 140° 5 - 30.13 30.14 10 SCT030 BKN250 None
2017-11-21 16:56 57 45 - 63 150° 8 - 30.13 30.13 10 FEW030 BKN250 None
2017-11-21 15:56 59 44 - 57 150° 9 - 30.14 30.15 10 FEW030 BKN250 None
2017-11-21 14:56 63 45 - 51 190° 8 - 30.14 30.14 10 FEW030 BKN250 None
2017-11-21 13:56 63 42 - 46 190° 5 - 30.16 30.16 10 BKN250 None
2017-11-21 12:56 62 41 - 45 230° 9 - 30.18 30.19 10 BKN250 6-hr Min Temp (1pm): 39.0°F
6-hr Max Temp (1pm): 63.0°F
2017-11-21 11:56 60 38 - 43 230° 10 - 30.22 30.22 10 BKN250 None
2017-11-21 10:56 57 38 - 48 240° 7 - 30.24 30.25 10 SCT250 None
2017-11-21 09:56 54 37 - 52 230° 7 - 30.25 30.26 10 SCT250 None
2017-11-21 08:56 48 36 44 62 230° 9 - 30.26 30.26 10 CLR None
2017-11-21 07:56 42 35 38 75 220° 7 - 30.25 30.25 10 SCT250 None
2017-11-21 06:56 40 33 36 76 220° 6 - 30.24 30.24 10 SCT250 6-hr Min Temp (7am): 36.0°F
6-hr Max Temp (7am): 42.1°F
2017-11-21 05:56 42 34 38 72 200° 7 - 30.24 30.24 10 SCT280 None
2017-11-21 04:56 41 33 36 73 190° 7 - 30.24 30.24 10 BKN280 None

Support USWX by starting your Amazon purchase here.